createdAt,value
2023-02-26T10:10:26.763Z,8.00
2023-02-26T10:15:29.214Z,7.80
2023-02-26T10:18:21.178Z,7.80
2023-02-26T10:20:56.122Z,7.60
2023-02-26T10:23:32.071Z,7.30
2023-02-26T10:26:24.522Z,8.20
2023-02-26T10:29:00.732Z,8.70
2023-02-26T10:31:50.951Z,9.20
2023-02-26T10:35:01.872Z,9.20
2023-02-26T10:37:38.655Z,8.50
2023-02-26T10:40:23.899Z,11.20
2023-02-26T10:43:20.093Z,6.40
2023-02-26T10:46:13.017Z,6.20
2023-02-26T10:48:42.645Z,5.70
2023-02-26T10:51:18.545Z,7.90
2023-02-26T10:54:03.238Z,7.80
2023-02-26T10:56:33.914Z,6.20
2023-02-26T10:59:00.934Z,6.90
2023-02-26T11:01:30.502Z,7.00
2023-02-26T11:04:07.784Z,6.60
2023-02-26T11:06:43.231Z,6.70
2023-02-26T11:09:43.209Z,7.00
2023-02-26T11:12:17.465Z,6.90
2023-02-26T11:14:47.204Z,10.20
2023-02-26T11:17:22.094Z,6.90
2023-02-26T11:19:56.324Z,6.90
2023-02-26T11:22:27.235Z,6.20
2023-02-26T11:24:53.979Z,7.00
2023-02-26T11:27:26.679Z,7.30
2023-02-26T11:29:57.119Z,7.00
2023-02-26T11:32:31.408Z,6.60
2023-02-26T11:34:57.912Z,10.30
2023-02-26T11:37:30.558Z,8.60
2023-02-26T11:40:05.437Z,9.00
2023-02-26T11:42:37.636Z,9.40
2023-02-26T11:45:06.008Z,10.30
2023-02-26T11:47:34.202Z,7.70
2023-02-26T11:50:05.051Z,6.60
2023-02-26T11:52:40.232Z,6.90
2023-02-26T11:55:28.835Z,7.80
2023-02-26T11:57:56.173Z,9.40
2023-02-26T12:00:24.571Z,10.60
2023-02-26T12:02:56.342Z,8.40
2023-02-26T12:05:23.033Z,8.80
2023-02-26T12:07:50.246Z,9.90
2023-02-26T12:10:29.310Z,8.40
2023-02-26T12:13:09.049Z,7.20
2023-02-26T12:15:51.269Z,7.30
2023-02-26T12:18:47.323Z,8.20
2023-02-26T12:21:31.281Z,7.90
2023-02-26T12:24:19.991Z,6.90
2023-02-26T12:26:56.396Z,8.50
2023-02-26T12:30:02.846Z,7.10
2023-02-26T12:33:04.744Z,8.30
2023-02-26T12:35:34.508Z,7.60
2023-02-26T12:38:18.746Z,9.00
2023-02-26T12:41:24.168Z,8.50
2023-02-26T12:46:43.903Z,9.60
2023-02-26T12:49:28.789Z,9.00
2023-02-26T12:51:58.255Z,8.40
2023-02-26T12:54:49.429Z,7.80
2023-02-26T12:57:34.874Z,7.40
2023-02-26T13:00:14.120Z,5.90
2023-02-26T13:02:49.972Z,7.30
2023-02-26T13:05:25.674Z,6.80
2023-02-26T13:07:52.159Z,7.30
2023-02-26T13:10:28.809Z,7.60
2023-02-26T13:13:10.680Z,8.40
2023-02-26T13:16:01.450Z,8.50
2023-02-26T13:19:00.166Z,7.90
2023-02-26T13:21:49.904Z,8.70
2023-02-26T13:24:24.500Z,9.00
2023-02-26T13:26:53.149Z,11.10
2023-02-26T13:29:28.685Z,8.20
2023-02-26T13:32:14.682Z,9.00
2023-02-26T13:34:46.617Z,11.50
2023-02-26T13:37:29.975Z,8.40
2023-02-26T13:40:21.169Z,9.30
2023-02-26T13:42:59.692Z,10.80
2023-02-26T13:45:45.701Z,10.80
2023-02-26T13:48:43.380Z,11.00
2023-02-26T13:51:40.862Z,9.90
2023-02-26T13:54:12.541Z,10.50
2023-02-26T13:56:40.634Z,11.60
2023-02-26T13:59:16.915Z,10.10
2023-02-26T14:01:50.291Z,12.90
2023-02-26T14:04:24.114Z,11.10
2023-02-26T14:06:53.601Z,12.40
2023-02-26T14:09:23.635Z,10.60
2023-02-26T14:11:54.737Z,11.10
2023-02-26T14:14:22.679Z,9.20
2023-02-26T14:16:56.574Z,9.10
2023-02-26T14:19:43.426Z,11.00
2023-02-26T14:22:14.444Z,10.70
2023-02-26T14:24:50.839Z,7.90
2023-02-26T14:27:19.190Z,8.00
2023-02-26T14:29:56.220Z,8.80
2023-02-26T14:32:34.119Z,9.60
2023-02-26T14:35:11.984Z,9.30
2023-02-26T14:37:40.809Z,9.90
2023-02-26T14:40:18.026Z,10.20
2023-02-26T14:42:51.706Z,8.60
2023-02-26T14:45:41.334Z,10.00
2023-02-26T14:48:16.674Z,9.90
2023-02-26T14:51:28.125Z,9.90
2023-02-26T14:54:18.708Z,11.70
2023-02-26T14:57:11.971Z,10.50
2023-02-26T15:00:01.556Z,11.60
2023-02-26T15:02:46.930Z,11.30
2023-02-26T15:05:24.110Z,11.30
2023-02-26T15:08:01.387Z,10.80
2023-02-26T15:10:40.497Z,12.10
2023-02-26T15:13:23.473Z,11.60
2023-02-26T15:16:04.859Z,11.70
2023-02-26T15:18:51.937Z,10.70
2023-02-26T15:21:48.409Z,12.10
2023-02-26T15:24:16.796Z,11.90
2023-02-26T15:26:52.536Z,12.50
2023-02-26T15:29:28.260Z,12.80
2023-02-26T15:32:07.042Z,12.50
2023-02-26T15:34:35.145Z,13.10
2023-02-26T15:37:03.037Z,13.70
2023-02-26T15:39:30.939Z,14.20
2023-02-26T15:41:58.805Z,15.50
2023-02-26T15:44:33.246Z,14.60
2023-02-26T15:47:03.633Z,14.30
2023-02-26T15:49:40.603Z,15.30
2023-02-26T15:52:15.720Z,13.80
2023-02-26T15:54:48.379Z,13.70
2023-02-26T15:57:17.963Z,11.90
2023-02-26T15:59:50.482Z,13.30
2023-02-26T16:02:27.747Z,14.00
2023-02-26T16:04:56.037Z,14.10
2023-02-26T16:07:24.896Z,14.30
2023-02-26T16:09:54.564Z,13.20
2023-02-26T16:12:35.605Z,12.30
2023-02-26T16:15:11.343Z,14.70
2023-02-26T16:17:51.174Z,13.70
2023-02-26T16:20:22.802Z,12.80
2023-02-26T16:23:05.406Z,14.30
2023-02-26T16:25:46.819Z,14.20
2023-02-26T16:28:19.608Z,14.20
2023-02-26T16:30:53.070Z,14.60
2023-02-26T16:36:04.222Z,14.70
2023-02-26T16:38:43.402Z,15.20
2023-02-26T16:41:12.478Z,17.70
2023-02-26T16:43:49.706Z,16.00
2023-02-26T16:46:24.148Z,15.20
2023-02-26T16:48:55.211Z,16.00
2023-02-26T16:51:25.997Z,16.50
2023-02-26T16:54:16.100Z,16.00
2023-02-26T16:56:48.431Z,18.10
2023-02-26T16:59:52.369Z,18.80
2023-02-26T17:02:27.736Z,18.40
2023-02-26T17:05:09.051Z,19.00
2023-02-26T17:07:47.358Z,19.10
2023-02-26T17:10:24.317Z,23.80
2023-02-26T17:13:01.359Z,16.60
2023-02-26T17:15:37.079Z,18.10
2023-02-26T17:18:05.239Z,23.60
2023-02-26T17:20:33.863Z,21.70
2023-02-26T17:23:05.325Z,21.30
2023-02-26T17:25:41.976Z,19.90
2023-02-26T17:28:16.181Z,18.40
2023-02-26T17:30:44.257Z,21.10
2023-02-26T17:33:14.708Z,22.20
2023-02-26T17:35:44.456Z,21.20
2023-02-26T17:38:15.427Z,24.50
2023-02-26T17:40:47.717Z,26.70
2023-02-26T17:43:15.957Z,21.30
2023-02-26T17:45:44.004Z,23.90
2023-02-26T17:48:14.449Z,22.90
2023-02-26T17:50:52.823Z,20.60
2023-02-26T17:53:22.850Z,24.00
2023-02-26T17:55:53.667Z,22.40
2023-02-26T17:58:28.650Z,24.00
2023-02-26T18:00:57.548Z,25.60
2023-02-26T18:03:26.391Z,22.70
2023-02-26T18:05:56.089Z,23.10
2023-02-26T18:08:35.325Z,24.40
2023-02-26T18:11:04.506Z,20.10
2023-02-26T18:13:33.310Z,17.70
2023-02-26T18:16:02.905Z,20.20
2023-02-26T18:18:32.484Z,17.90
2023-02-26T18:21:01.211Z,19.60
2023-02-26T18:23:29.163Z,22.50
2023-02-26T18:25:57.309Z,22.90
2023-02-26T18:28:33.775Z,28.10
2023-02-26T18:31:08.932Z,22.80
2023-02-26T18:33:41.583Z,25.50
2023-02-26T18:36:16.894Z,24.10
2023-02-26T18:38:45.629Z,24.70
2023-02-26T18:41:13.614Z,17.40
2023-02-26T18:43:44.134Z,18.90
2023-02-26T18:46:13.253Z,23.00
2023-02-26T18:48:41.424Z,23.10
2023-02-26T18:51:12.142Z,24.60
2023-02-26T18:53:41.280Z,24.30
2023-02-26T18:56:09.205Z,28.70
2023-02-26T18:58:40.054Z,29.30
2023-02-26T19:01:08.566Z,26.20
2023-02-26T19:03:36.458Z,26.30
2023-02-26T19:06:08.872Z,23.90
2023-02-26T19:08:37.245Z,22.90
2023-02-26T19:11:05.909Z,23.30
2023-02-26T19:13:34.607Z,20.50
2023-02-26T19:16:03.095Z,25.10
2023-02-26T19:18:31.149Z,25.10
2023-02-26T19:20:59.250Z,31.20
2023-02-26T19:23:27.244Z,33.40
2023-02-26T19:25:55.438Z,23.70
2023-02-26T19:28:24.684Z,23.60
2023-02-26T19:30:55.936Z,22.30
2023-02-26T19:33:24.657Z,23.30
2023-02-26T19:35:54.500Z,23.70
2023-02-26T19:38:23.738Z,23.70
2023-02-26T19:40:51.722Z,24.20
2023-02-26T19:43:19.698Z,22.80
2023-02-26T19:45:47.738Z,24.70
2023-02-26T19:48:15.725Z,26.90
2023-02-26T19:50:44.057Z,26.40
2023-02-26T19:53:13.319Z,26.20
2023-02-26T19:55:41.334Z,25.00
2023-02-26T19:58:09.362Z,25.80
2023-02-26T20:00:37.360Z,24.20
2023-02-26T20:03:05.818Z,24.10
2023-02-26T20:05:36.234Z,23.50
2023-02-26T20:08:04.509Z,26.20
2023-02-26T20:10:32.728Z,24.20
2023-02-26T20:13:00.704Z,25.20
2023-02-26T20:15:29.360Z,28.10
2023-02-26T20:17:57.393Z,28.30
2023-02-26T20:20:25.526Z,27.00
2023-02-26T20:22:53.518Z,25.40
2023-02-26T20:25:21.668Z,27.50
2023-02-26T20:27:50.227Z,25.90
2023-02-26T20:30:19.425Z,26.70
2023-02-26T20:32:47.841Z,28.30
2023-02-26T20:35:16.375Z,28.40
2023-02-26T20:37:45.039Z,29.80
2023-02-26T20:40:13.755Z,30.00
2023-02-26T20:42:42.540Z,32.10
2023-02-26T20:45:11.266Z,34.40
2023-02-26T20:47:39.633Z,32.90
2023-02-26T20:50:09.756Z,33.90
2023-02-26T20:52:38.001Z,31.60
2023-02-26T20:55:06.568Z,32.30
2023-02-26T20:57:35.482Z,32.70
2023-02-26T21:00:10.967Z,34.30
2023-02-26T21:02:40.659Z,33.00
2023-02-26T21:05:09.671Z,31.40
2023-02-26T21:07:39.489Z,31.40
2023-02-26T21:10:10.180Z,33.00
2023-02-26T21:12:38.447Z,39.10
2023-02-26T21:15:10.426Z,34.60
2023-02-26T21:17:40.632Z,32.80
2023-02-26T21:20:12.039Z,33.70
2023-02-26T21:22:40.266Z,32.50
2023-02-26T21:25:08.855Z,33.80
2023-02-26T21:27:37.839Z,34.60
2023-02-26T21:30:08.265Z,35.50
2023-02-26T21:32:36.331Z,31.90
2023-02-26T21:35:04.857Z,32.40
2023-02-26T21:37:33.609Z,34.20
2023-02-26T21:40:01.615Z,34.00
2023-02-26T21:42:30.359Z,33.20
2023-02-26T21:44:58.298Z,33.50
2023-02-26T21:47:26.778Z,29.70
2023-02-26T21:49:54.717Z,32.60
2023-02-26T21:52:22.643Z,34.80
2023-02-26T21:54:50.612Z,33.40
2023-02-26T21:57:18.733Z,29.90
2023-02-26T21:59:46.797Z,26.60
2023-02-26T22:02:14.827Z,24.40
2023-02-26T22:04:43.878Z,25.20
2023-02-26T22:07:12.209Z,25.20
2023-02-26T22:09:40.342Z,24.10
2023-02-26T22:12:08.689Z,23.60
2023-02-26T22:14:36.950Z,27.30
2023-02-26T22:17:06.015Z,27.00
2023-02-26T22:19:33.999Z,29.10
2023-02-26T22:22:01.912Z,29.90
2023-02-26T22:24:30.128Z,27.50
2023-02-26T22:26:58.058Z,27.90
2023-02-26T22:29:26.006Z,30.90
2023-02-26T22:31:54.270Z,32.60
2023-02-26T22:34:22.352Z,32.00
2023-02-26T22:36:52.246Z,32.70
2023-02-26T22:39:20.552Z,34.40
2023-02-26T22:41:48.562Z,33.20
2023-02-26T22:44:16.521Z,34.80
2023-02-26T22:46:44.703Z,35.70
2023-02-26T22:49:13.174Z,35.70
2023-02-26T22:51:41.059Z,33.10
2023-02-26T22:54:09.022Z,32.30
2023-02-26T22:56:37.021Z,32.80
2023-02-26T22:59:04.931Z,33.40
2023-02-26T23:01:32.855Z,33.80
2023-02-26T23:04:00.911Z,33.00
2023-02-26T23:06:28.877Z,33.30
2023-02-26T23:08:56.785Z,31.90
2023-02-26T23:11:25.121Z,32.10
2023-02-26T23:13:53.324Z,33.70
2023-02-26T23:16:21.760Z,32.00
2023-02-26T23:18:49.762Z,28.70
2023-02-26T23:21:17.870Z,30.20
2023-02-26T23:23:45.863Z,30.70
2023-02-26T23:26:14.275Z,31.30
2023-02-26T23:28:42.263Z,28.10
2023-02-26T23:31:10.322Z,27.80
2023-02-26T23:33:38.382Z,27.20
2023-02-26T23:36:07.055Z,28.00
2023-02-26T23:38:35.000Z,27.00
2023-02-26T23:41:03.157Z,25.10
2023-02-26T23:43:31.512Z,25.70
2023-02-26T23:45:59.561Z,26.00
2023-02-26T23:48:27.597Z,26.20
2023-02-26T23:50:56.030Z,24.60
2023-02-26T23:53:24.067Z,23.20
2023-02-26T23:55:57.268Z,22.10
2023-02-26T23:58:27.134Z,23.60
